Main page
METAR-TAF:

METAR-TAF

Airports :

Oban Airport

Oban, Scotland

latitude: 56-27-49N, longitude: 5-24-00W, elevation: 7 m

Current weather observation

The report was made 10 hours and 20 minutes ago, at 16:20 UTC
Wind 11 kt from the West
Temperature 15°C
Humidity 59%
Pressure 1018 hPa
Visibility 10 km or more
no clouds below 1500 m and no cumulonimbus

METAR: EGEO 181620Z 28011KT CAVOK 15/07 Q1018

Time: 03:40 (02:40 UTC)

Forecast

The report was made 12 hours and 44 minutes ago, at 13:56 UTC
Forecast valid from 18 at 15 UTC to 18 at 17 UTC
Wind 6 kt from the West
Visibility 10 km or more
Few clouds at a height of 4500 ft

TAF: EGEO 181356Z 1815/1817 28006KT 9999 FEW045

Weather observations and forecasts of more than 4000 airports (METAR and TAF reports).

The available stations are represented by yellow and red dots on the map.

Hover mouse over dot to see the name of the station.

Then click to see weather observations and forecasts.

To change the map : click on the green buttons with a black cross to zoom in, on the green button with a dash to zoom out, or on the green arrows for adjacent maps.


METAR-TAF: